sensor_id;sensor_type;location;lat;lon;timestamp;temperature;humidity
1055;DHT22;516;51.482;7.120;2024-02-04T00:00:51;22.10;1.00
1055;DHT22;516;51.482;7.120;2024-02-04T00:03:17;22.10;1.00
1055;DHT22;516;51.482;7.120;2024-02-04T00:05:42;22.10;1.00
1055;DHT22;516;51.482;7.120;2024-02-04T00:08:08;22.10;1.00
1055;DHT22;516;51.482;7.120;2024-02-04T00:10:34;22.10;1.00
1055;DHT22;516;51.482;7.120;2024-02-04T00:13:00;22.10;1.00
1055;DHT22;516;51.482;7.120;2024-02-04T00:15:25;22.10;1.00
1055;DHT22;516;51.482;7.120;2024-02-04T00:17:51;22.10;1.00
1055;DHT22;516;51.482;7.120;2024-02-04T00:20:17;22.10;1.00
1055;DHT22;516;51.482;7.120;2024-02-04T00:22:42;22.10;1.00
1055;DHT22;516;51.482;7.120;2024-02-04T00:25:08;22.10;1.00
1055;DHT22;516;51.482;7.120;2024-02-04T00:27:37;22.10;1.00
1055;DHT22;516;51.482;7.120;2024-02-04T00:30:02;22.10;1.00
1055;DHT22;516;51.482;7.120;2024-02-04T00:32:28;22.00;1.00
1055;DHT22;516;51.482;7.120;2024-02-04T00:34:54;22.00;1.00
1055;DHT22;516;51.482;7.120;2024-02-04T00:37:19;22.00;1.00
1055;DHT22;516;51.482;7.120;2024-02-04T00:39:45;22.10;1.00
1055;DHT22;516;51.482;7.120;2024-02-04T00:42:11;22.10;1.00
1055;DHT22;516;51.482;7.120;2024-02-04T00:44:37;22.00;1.00
1055;DHT22;516;51.482;7.120;2024-02-04T00:47:02;22.00;1.00
1055;DHT22;516;51.482;7.120;2024-02-04T00:49:28;22.00;1.00
1055;DHT22;516;51.482;7.120;2024-02-04T00:51:54;22.00;1.00
1055;DHT22;516;51.482;7.120;2024-02-04T00:54:19;22.00;1.00
1055;DHT22;516;51.482;7.120;2024-02-04T00:56:45;22.00;1.00
1055;DHT22;516;51.482;7.120;2024-02-04T00:59:11;22.00;1.00
1055;DHT22;516;51.482;7.120;2024-02-04T01:01:37;22.00;1.00
1055;DHT22;516;51.482;7.120;2024-02-04T01:04:03;22.00;1.00
1055;DHT22;516;51.482;7.120;2024-02-04T01:06:29;22.00;1.00
1055;DHT22;516;51.482;7.120;2024-02-04T01:08:56;22.00;1.00
1055;DHT22;516;51.482;7.120;2024-02-04T01:11:22;22.00;1.00
1055;DHT22;516;51.482;7.120;2024-02-04T01:13:47;22.00;1.00
1055;DHT22;516;51.482;7.120;2024-02-04T01:16:13;22.00;1.00
1055;DHT22;516;51.482;7.120;2024-02-04T01:18:39;22.00;1.00
1055;DHT22;516;51.482;7.120;2024-02-04T01:21:04;22.00;1.00
1055;DHT22;516;51.482;7.120;2024-02-04T01:23:30;21.90;1.00
1055;DHT22;516;51.482;7.120;2024-02-04T01:25:56;22.00;1.00
1055;DHT22;516;51.482;7.120;2024-02-04T01:28:21;21.90;1.00
1055;DHT22;516;51.482;7.120;2024-02-04T01:30:47;21.90;1.00
1055;DHT22;516;51.482;7.120;2024-02-04T01:33:13;21.90;1.00
1055;DHT22;516;51.482;7.120;2024-02-04T01:35:38;21.90;1.00
1055;DHT22;516;51.482;7.120;2024-02-04T01:38:04;21.90;1.00
1055;DHT22;516;51.482;7.120;2024-02-04T01:40:30;21.90;1.00
1055;DHT22;516;51.482;7.120;2024-02-04T01:42:56;21.90;1.00
1055;DHT22;516;51.482;7.120;2024-02-04T01:45:22;21.90;1.00
1055;DHT22;516;51.482;7.120;2024-02-04T01:47:48;21.90;1.00
1055;DHT22;516;51.482;7.120;2024-02-04T01:50:14;21.90;1.00
1055;DHT22;516;51.482;7.120;2024-02-04T01:52:41;21.90;1.00
1055;DHT22;516;51.482;7.120;2024-02-04T01:55:08;21.90;1.00
1055;DHT22;516;51.482;7.120;2024-02-04T01:57:33;21.90;1.00
1055;DHT22;516;51.482;7.120;2024-02-04T02:00:03;21.90;1.00
1055;DHT22;516;51.482;7.120;2024-02-04T02:02:30;21.90;1.00
1055;DHT22;516;51.482;7.120;2024-02-04T02:04:59;21.90;1.00
1055;DHT22;516;51.482;7.120;2024-02-04T02:07:25;21.90;1.00
1055;DHT22;516;51.482;7.120;2024-02-04T02:09:53;21.90;1.00
1055;DHT22;516;51.482;7.120;2024-02-04T02:12:24;21.90;1.00
1055;DHT22;516;51.482;7.120;2024-02-04T02:14:58;21.90;1.00
1055;DHT22;516;51.482;7.120;2024-02-04T02:17:51;21.80;1.00
1055;DHT22;516;51.482;7.120;2024-02-04T02:20:41;21.80;1.00
1055;DHT22;516;51.482;7.120;2024-02-04T02:23:21;21.80;1.00
1055;DHT22;516;51.482;7.120;2024-02-04T02:25:48;21.80;1.00
1055;DHT22;516;51.482;7.120;2024-02-04T02:28:15;21.80;1.00
1055;DHT22;516;51.482;7.120;2024-02-04T02:30:40;21.80;1.00
1055;DHT22;516;51.482;7.120;2024-02-04T02:33:06;21.80;1.00
1055;DHT22;516;51.482;7.120;2024-02-04T02:35:34;21.80;1.00
1055;DHT22;516;51.482;7.120;2024-02-04T02:41:01;21.80;1.00
1055;DHT22;516;51.482;7.120;2024-02-04T02:43:29;21.80;1.00
1055;DHT22;516;51.482;7.120;2024-02-04T02:45:55;21.80;1.00
1055;DHT22;516;51.482;7.120;2024-02-04T02:48:21;21.80;1.00
1055;DHT22;516;51.482;7.120;2024-02-04T02:50:47;21.80;1.00
1055;DHT22;516;51.482;7.120;2024-02-04T02:53:13;21.80;1.00
1055;DHT22;516;51.482;7.120;2024-02-04T02:55:39;21.80;1.00
1055;DHT22;516;51.482;7.120;2024-02-04T02:58:06;21.80;1.00
1055;DHT22;516;51.482;7.120;2024-02-04T03:00:33;21.80;1.00
1055;DHT22;516;51.482;7.120;2024-02-04T03:02:58;21.70;1.00
1055;DHT22;516;51.482;7.120;2024-02-04T03:05:24;21.70;1.00
1055;DHT22;516;51.482;7.120;2024-02-04T03:07:50;21.80;1.00
1055;DHT22;516;51.482;7.120;2024-02-04T03:10:16;21.70;1.00
1055;DHT22;516;51.482;7.120;2024-02-04T03:12:41;21.80;1.00
1055;DHT22;516;51.482;7.120;2024-02-04T03:15:07;21.70;1.00
1055;DHT22;516;51.482;7.120;2024-02-04T03:17:33;21.70;1.00
1055;DHT22;516;51.482;7.120;2024-02-04T03:19:58;21.70;1.00
1055;DHT22;516;51.482;7.120;2024-02-04T03:22:24;21.70;1.00
1055;DHT22;516;51.482;7.120;2024-02-04T03:24:51;21.70;1.00
1055;DHT22;516;51.482;7.120;2024-02-04T03:27:17;21.70;1.00
1055;DHT22;516;51.482;7.120;2024-02-04T03:29:43;21.70;1.00
1055;DHT22;516;51.482;7.120;2024-02-04T03:32:10;21.70;1.00
1055;DHT22;516;51.482;7.120;2024-02-04T03:34:36;21.70;1.00
1055;DHT22;516;51.482;7.120;2024-02-04T03:37:02;21.70;1.00
1055;DHT22;516;51.482;7.120;2024-02-04T03:39:28;21.70;1.00
1055;DHT22;516;51.482;7.120;2024-02-04T03:41:53;21.70;1.00
1055;DHT22;516;51.482;7.120;2024-02-04T03:44:19;21.70;1.00
1055;DHT22;516;51.482;7.120;2024-02-04T03:46:48;21.70;1.00
1055;DHT22;516;51.482;7.120;2024-02-04T03:49:14;21.70;1.00
1055;DHT22;516;51.482;7.120;2024-02-04T03:51:40;21.70;1.00
1055;DHT22;516;51.482;7.120;2024-02-04T03:54:05;21.70;1.00
1055;DHT22;516;51.482;7.120;2024-02-04T03:56:31;21.60;1.00
1055;DHT22;516;51.482;7.120;2024-02-04T03:58:57;21.70;1.00
1055;DHT22;516;51.482;7.120;2024-02-04T04:01:22;21.70;1.00
1055;DHT22;516;51.482;7.120;2024-02-04T04:03:49;21.70;1.00
1055;DHT22;516;51.482;7.120;2024-02-04T04:06:15;21.60;1.00
1055;DHT22;516;51.482;7.120;2024-02-04T04:08:40;21.60;1.00
1055;DHT22;516;51.482;7.120;2024-02-04T04:11:08;21.60;1.00
1055;DHT22;516;51.482;7.120;2024-02-04T04:13:35;21.60;1.00
1055;DHT22;516;51.482;7.120;2024-02-04T04:16:01;21.60;1.00
1055;DHT22;516;51.482;7.120;2024-02-04T04:18:27;21.60;1.00
1055;DHT22;516;51.482;7.120;2024-02-04T04:20:52;21.60;1.00
1055;DHT22;516;51.482;7.120;2024-02-04T04:23:18;21.60;1.00
1055;DHT22;516;51.482;7.120;2024-02-04T04:25:44;21.60;1.00
1055;DHT22;516;51.482;7.120;2024-02-04T04:28:09;21.60;1.00
1055;DHT22;516;51.482;7.120;2024-02-04T04:30:35;21.60;1.00
1055;DHT22;516;51.482;7.120;2024-02-04T04:33:00;21.60;1.00
1055;DHT22;516;51.482;7.120;2024-02-04T04:35:26;21.60;1.00
1055;DHT22;516;51.482;7.120;2024-02-04T04:37:52;21.60;1.00
1055;DHT22;516;51.482;7.120;2024-02-04T04:40:18;21.60;1.00
1055;DHT22;516;51.482;7.120;2024-02-04T04:42:43;21.80;1.00
1055;DHT22;516;51.482;7.120;2024-02-04T04:45:09;21.80;1.00
1055;DHT22;516;51.482;7.120;2024-02-04T04:47:36;21.80;1.00
1055;DHT22;516;51.482;7.120;2024-02-04T04:50:02;21.70;1.00
1055;DHT22;516;51.482;7.120;2024-02-04T04:52:28;21.50;1.00
1055;DHT22;516;51.482;7.120;2024-02-04T04:54:55;21.50;1.00
1055;DHT22;516;51.482;7.120;2024-02-04T04:57:21;21.00;1.00
1055;DHT22;516;51.482;7.120;2024-02-04T04:59:47;20.20;1.00
1055;DHT22;516;51.482;7.120;2024-02-04T05:02:13;19.60;1.00
1055;DHT22;516;51.482;7.120;2024-02-04T05:04:41;19.30;1.00
1055;DHT22;516;51.482;7.120;2024-02-04T05:07:07;19.20;1.00
1055;DHT22;516;51.482;7.120;2024-02-04T05:09:33;19.70;1.00
1055;DHT22;516;51.482;7.120;2024-02-04T05:11:59;20.10;1.00
1055;DHT22;516;51.482;7.120;2024-02-04T05:14:24;20.40;1.00
1055;DHT22;516;51.482;7.120;2024-02-04T05:16:50;20.60;1.00
1055;DHT22;516;51.482;7.120;2024-02-04T05:19:16;20.70;1.00
1055;DHT22;516;51.482;7.120;2024-02-04T05:21:41;20.80;1.00
1055;DHT22;516;51.482;7.120;2024-02-04T05:24:07;20.90;1.00
1055;DHT22;516;51.482;7.120;2024-02-04T05:26:33;20.90;1.00
1055;DHT22;516;51.482;7.120;2024-02-04T05:28:58;21.00;1.00
1055;DHT22;516;51.482;7.120;2024-02-04T05:31:24;21.00;1.00
1055;DHT22;516;51.482;7.120;2024-02-04T05:33:52;21.00;1.00
1055;DHT22;516;51.482;7.120;2024-02-04T05:36:17;21.10;1.00
1055;DHT22;516;51.482;7.120;2024-02-04T05:38:45;21.00;1.00
1055;DHT22;516;51.482;7.120;2024-02-04T05:41:10;21.10;1.00
1055;DHT22;516;51.482;7.120;2024-02-04T05:43:36;21.10;1.00
1055;DHT22;516;51.482;7.120;2024-02-04T05:46:02;21.10;1.00
1055;DHT22;516;51.482;7.120;2024-02-04T05:48:27;21.10;1.00
1055;DHT22;516;51.482;7.120;2024-02-04T05:50:53;21.10;1.00
1055;DHT22;516;51.482;7.120;2024-02-04T05:53:19;21.10;1.00
1055;DHT22;516;51.482;7.120;2024-02-04T05:55:45;21.10;1.00
1055;DHT22;516;51.482;7.120;2024-02-04T05:58:11;21.20;1.00
1055;DHT22;516;51.482;7.120;2024-02-04T06:00:38;21.20;1.00
1055;DHT22;516;51.482;7.120;2024-02-04T06:03:04;21.20;1.00
1055;DHT22;516;51.482;7.120;2024-02-04T06:05:30;21.10;1.00
1055;DHT22;516;51.482;7.120;2024-02-04T06:07:56;21.20;1.00
1055;DHT22;516;51.482;7.120;2024-02-04T06:10:22;21.10;1.00
1055;DHT22;516;51.482;7.120;2024-02-04T06:12:48;21.20;1.00
1055;DHT22;516;51.482;7.120;2024-02-04T06:15:14;21.20;1.00
1055;DHT22;516;51.482;7.120;2024-02-04T06:17:40;21.20;1.00
1055;DHT22;516;51.482;7.120;2024-02-04T06:20:06;21.10;1.00
1055;DHT22;516;51.482;7.120;2024-02-04T06:22:34;21.10;1.00
1055;DHT22;516;51.482;7.120;2024-02-04T06:25:00;21.20;1.00
1055;DHT22;516;51.482;7.120;2024-02-04T06:27:25;21.20;1.00
1055;DHT22;516;51.482;7.120;2024-02-04T06:29:51;21.20;1.00
1055;DHT22;516;51.482;7.120;2024-02-04T06:32:17;21.20;1.00
1055;DHT22;516;51.482;7.120;2024-02-04T06:34:46;21.20;1.00
1055;DHT22;516;51.482;7.120;2024-02-04T06:37:11;21.20;1.00
1055;DHT22;516;51.482;7.120;2024-02-04T06:39:38;21.20;1.00
1055;DHT22;516;51.482;7.120;2024-02-04T06:42:04;21.20;1.00
1055;DHT22;516;51.482;7.120;2024-02-04T06:44:30;21.10;1.00
1055;DHT22;516;51.482;7.120;2024-02-04T06:46:55;21.20;1.00
1055;DHT22;516;51.482;7.120;2024-02-04T06:49:21;21.20;1.00
1055;DHT22;516;51.482;7.120;2024-02-04T06:51:47;21.10;1.00
1055;DHT22;516;51.482;7.120;2024-02-04T06:54:13;21.20;1.00
1055;DHT22;516;51.482;7.120;2024-02-04T06:56:39;21.20;1.00
1055;DHT22;516;51.482;7.120;2024-02-04T06:59:05;21.10;1.00
1055;DHT22;516;51.482;7.120;2024-02-04T07:01:32;21.10;1.00
1055;DHT22;516;51.482;7.120;2024-02-04T07:03:58;21.10;1.00
1055;DHT22;516;51.482;7.120;2024-02-04T07:06:23;21.10;1.00
1055;DHT22;516;51.482;7.120;2024-02-04T07:08:49;21.10;1.00
1055;DHT22;516;51.482;7.120;2024-02-04T07:11:16;21.20;1.00
1055;DHT22;516;51.482;7.120;2024-02-04T07:13:41;21.10;1.00
1055;DHT22;516;51.482;7.120;2024-02-04T07:16:07;21.10;1.00
1055;DHT22;516;51.482;7.120;2024-02-04T07:18:33;21.10;1.00
1055;DHT22;516;51.482;7.120;2024-02-04T07:20:58;21.10;1.00
1055;DHT22;516;51.482;7.120;2024-02-04T07:23:24;21.10;1.00
1055;DHT22;516;51.482;7.120;2024-02-04T07:25:50;21.10;1.00
1055;DHT22;516;51.482;7.120;2024-02-04T07:28:16;21.20;1.00
1055;DHT22;516;51.482;7.120;2024-02-04T07:30:41;21.10;1.00
1055;DHT22;516;51.482;7.120;2024-02-04T07:33:07;21.10;1.00
1055;DHT22;516;51.482;7.120;2024-02-04T07:35:33;21.20;1.00
1055;DHT22;516;51.482;7.120;2024-02-04T07:37:58;21.10;1.00
1055;DHT22;516;51.482;7.120;2024-02-04T07:40:24;21.10;1.00
1055;DHT22;516;51.482;7.120;2024-02-04T07:42:50;21.20;1.00
1055;DHT22;516;51.482;7.120;2024-02-04T07:45:15;21.10;1.00
1055;DHT22;516;51.482;7.120;2024-02-04T07:47:41;21.10;1.00
1055;DHT22;516;51.482;7.120;2024-02-04T07:50:07;21.10;1.00
1055;DHT22;516;51.482;7.120;2024-02-04T07:52:33;21.10;1.00
1055;DHT22;516;51.482;7.120;2024-02-04T07:54:59;21.10;1.00
1055;DHT22;516;51.482;7.120;2024-02-04T07:57:25;21.10;1.00
1055;DHT22;516;51.482;7.120;2024-02-04T07:59:50;21.10;1.00
1055;DHT22;516;51.482;7.120;2024-02-04T08:02:18;21.10;1.00
1055;DHT22;516;51.482;7.120;2024-02-04T08:04:43;21.10;1.00
1055;DHT22;516;51.482;7.120;2024-02-04T08:07:09;21.10;1.00
1055;DHT22;516;51.482;7.120;2024-02-04T08:09:35;21.10;1.00
1055;DHT22;516;51.482;7.120;2024-02-04T08:12:00;21.10;1.00
1055;DHT22;516;51.482;7.120;2024-02-04T08:14:26;21.10;1.00
1055;DHT22;516;51.482;7.120;2024-02-04T08:16:52;21.10;1.00
1055;DHT22;516;51.482;7.120;2024-02-04T08:19:18;21.10;1.00
1055;DHT22;516;51.482;7.120;2024-02-04T08:21:44;21.10;1.00
1055;DHT22;516;51.482;7.120;2024-02-04T08:24:10;21.10;1.00
1055;DHT22;516;51.482;7.120;2024-02-04T08:26:36;21.10;1.00
1055;DHT22;516;51.482;7.120;2024-02-04T08:29:01;21.10;1.00
1055;DHT22;516;51.482;7.120;2024-02-04T08:31:27;21.10;1.00
1055;DHT22;516;51.482;7.120;2024-02-04T08:33:53;21.10;1.00
1055;DHT22;516;51.482;7.120;2024-02-04T08:36:19;21.10;1.00
1055;DHT22;516;51.482;7.120;2024-02-04T08:38:44;21.10;1.00
1055;DHT22;516;51.482;7.120;2024-02-04T08:41:10;21.10;1.00
1055;DHT22;516;51.482;7.120;2024-02-04T08:43:36;21.00;1.00
1055;DHT22;516;51.482;7.120;2024-02-04T08:46:02;21.10;1.00
1055;DHT22;516;51.482;7.120;2024-02-04T08:48:27;21.10;1.00
1055;DHT22;516;51.482;7.120;2024-02-04T08:50:53;21.10;1.00
1055;DHT22;516;51.482;7.120;2024-02-04T08:53:22;21.10;1.00
1055;DHT22;516;51.482;7.120;2024-02-04T08:55:49;21.00;1.00
1055;DHT22;516;51.482;7.120;2024-02-04T08:58:16;21.10;1.00
1055;DHT22;516;51.482;7.120;2024-02-04T09:00:41;21.00;1.00
1055;DHT22;516;51.482;7.120;2024-02-04T09:03:07;21.00;1.00
1055;DHT22;516;51.482;7.120;2024-02-04T09:05:33;21.00;1.00
1055;DHT22;516;51.482;7.120;2024-02-04T09:07:58;21.00;1.00
1055;DHT22;516;51.482;7.120;2024-02-04T09:10:24;21.00;1.00
1055;DHT22;516;51.482;7.120;2024-02-04T09:12:50;21.00;1.00
1055;DHT22;516;51.482;7.120;2024-02-04T09:15:15;21.00;1.00
1055;DHT22;516;51.482;7.120;2024-02-04T09:17:41;21.10;1.00
1055;DHT22;516;51.482;7.120;2024-02-04T09:20:07;21.00;1.00
1055;DHT22;516;51.482;7.120;2024-02-04T09:22:34;21.00;1.00
1055;DHT22;516;51.482;7.120;2024-02-04T09:24:59;21.00;1.00
1055;DHT22;516;51.482;7.120;2024-02-04T09:27:25;21.00;1.00
1055;DHT22;516;51.482;7.120;2024-02-04T09:29:51;21.00;1.00
1055;DHT22;516;51.482;7.120;2024-02-04T09:32:17;21.00;1.00
1055;DHT22;516;51.482;7.120;2024-02-04T09:34:43;21.00;1.00
1055;DHT22;516;51.482;7.120;2024-02-04T09:37:09;21.00;1.00
1055;DHT22;516;51.482;7.120;2024-02-04T09:39:35;21.00;1.00
1055;DHT22;516;51.482;7.120;2024-02-04T09:42:01;21.00;1.00
1055;DHT22;516;51.482;7.120;2024-02-04T09:44:27;21.00;1.00
1055;DHT22;516;51.482;7.120;2024-02-04T09:46:53;21.00;1.00
1055;DHT22;516;51.482;7.120;2024-02-04T09:49:19;21.00;1.00
1055;DHT22;516;51.482;7.120;2024-02-04T09:51:46;21.00;1.00
1055;DHT22;516;51.482;7.120;2024-02-04T09:54:14;21.00;1.00
1055;DHT22;516;51.482;7.120;2024-02-04T09:56:42;21.00;1.00
1055;DHT22;516;51.482;7.120;2024-02-04T09:59:07;21.00;1.00
1055;DHT22;516;51.482;7.120;2024-02-04T10:01:33;21.00;1.00
1055;DHT22;516;51.482;7.120;2024-02-04T10:04:01;21.00;1.00
1055;DHT22;516;51.482;7.120;2024-02-04T10:06:27;21.00;1.00
1055;DHT22;516;51.482;7.120;2024-02-04T10:08:53;21.00;1.00
1055;DHT22;516;51.482;7.120;2024-02-04T10:11:19;21.00;1.00
1055;DHT22;516;51.482;7.120;2024-02-04T10:13:49;21.00;1.00
1055;DHT22;516;51.482;7.120;2024-02-04T10:16:15;21.00;1.00
1055;DHT22;516;51.482;7.120;2024-02-04T10:18:45;21.00;1.00
1055;DHT22;516;51.482;7.120;2024-02-04T10:23:40;21.00;1.00
1055;DHT22;516;51.482;7.120;2024-02-04T10:26:06;21.00;1.00
1055;DHT22;516;51.482;7.120;2024-02-04T10:28:31;21.00;1.00
1055;DHT22;516;51.482;7.120;2024-02-04T10:30:57;21.00;1.00
1055;DHT22;516;51.482;7.120;2024-02-04T10:33:23;21.00;1.00
1055;DHT22;516;51.482;7.120;2024-02-04T10:35:49;21.00;1.00
1055;DHT22;516;51.482;7.120;2024-02-04T10:38:14;21.00;1.00
1055;DHT22;516;51.482;7.120;2024-02-04T10:40:40;21.00;1.00
1055;DHT22;516;51.482;7.120;2024-02-04T10:43:06;21.00;1.00
1055;DHT22;516;51.482;7.120;2024-02-04T10:45:37;21.00;1.00
1055;DHT22;516;51.482;7.120;2024-02-04T10:48:04;21.00;1.00
1055;DHT22;516;51.482;7.120;2024-02-04T10:50:34;21.00;1.00
1055;DHT22;516;51.482;7.120;2024-02-04T10:53:04;21.00;1.00
1055;DHT22;516;51.482;7.120;2024-02-04T10:55:31;21.00;1.00
1055;DHT22;516;51.482;7.120;2024-02-04T10:57:59;21.00;1.00
1055;DHT22;516;51.482;7.120;2024-02-04T11:00:26;21.00;1.00
1055;DHT22;516;51.482;7.120;2024-02-04T11:02:53;21.00;1.00
1055;DHT22;516;51.482;7.120;2024-02-04T11:05:20;21.00;1.00
1055;DHT22;516;51.482;7.120;2024-02-04T11:07:47;21.00;1.00
1055;DHT22;516;51.482;7.120;2024-02-04T11:10:13;21.10;1.00
1055;DHT22;516;51.482;7.120;2024-02-04T11:12:41;21.10;1.00
1055;DHT22;516;51.482;7.120;2024-02-04T11:15:09;21.10;1.00
1055;DHT22;516;51.482;7.120;2024-02-04T11:25:41;21.00;1.00
1055;DHT22;516;51.482;7.120;2024-02-04T11:28:10;21.00;1.00
1055;DHT22;516;51.482;7.120;2024-02-04T11:30:36;21.00;1.00
1055;DHT22;516;51.482;7.120;2024-02-04T11:33:06;21.00;1.00
1055;DHT22;516;51.482;7.120;2024-02-04T11:35:35;21.00;1.00
1055;DHT22;516;51.482;7.120;2024-02-04T11:38:03;21.00;1.00
1055;DHT22;516;51.482;7.120;2024-02-04T11:40:35;21.00;1.00
1055;DHT22;516;51.482;7.120;2024-02-04T11:43:13;21.00;1.00
1055;DHT22;516;51.482;7.120;2024-02-04T11:45:40;21.00;1.00
1055;DHT22;516;51.482;7.120;2024-02-04T11:48:15;21.00;1.00
1055;DHT22;516;51.482;7.120;2024-02-04T11:50:42;21.00;1.00
1055;DHT22;516;51.482;7.120;2024-02-04T11:53:13;21.00;1.00
1055;DHT22;516;51.482;7.120;2024-02-04T11:55:40;21.00;1.00
1055;DHT22;516;51.482;7.120;2024-02-04T11:58:07;21.00;1.00
1055;DHT22;516;51.482;7.120;2024-02-04T12:00:33;21.00;1.00
1055;DHT22;516;51.482;7.120;2024-02-04T12:03:06;21.00;1.00
1055;DHT22;516;51.482;7.120;2024-02-04T12:05:36;20.90;1.00
1055;DHT22;516;51.482;7.120;2024-02-04T12:08:04;20.90;1.00
1055;DHT22;516;51.482;7.120;2024-02-04T12:10:30;20.90;1.00
1055;DHT22;516;51.482;7.120;2024-02-04T12:12:59;20.90;1.00
1055;DHT22;516;51.482;7.120;2024-02-04T12:15:25;20.90;1.00
1055;DHT22;516;51.482;7.120;2024-02-04T12:17:51;20.90;1.00
1055;DHT22;516;51.482;7.120;2024-02-04T12:20:16;20.90;1.00
1055;DHT22;516;51.482;7.120;2024-02-04T12:22:42;20.90;1.00
1055;DHT22;516;51.482;7.120;2024-02-04T12:25:08;20.90;1.00
1055;DHT22;516;51.482;7.120;2024-02-04T12:27:34;20.90;1.00
1055;DHT22;516;51.482;7.120;2024-02-04T12:30:00;20.90;1.00
1055;DHT22;516;51.482;7.120;2024-02-04T12:32:26;20.90;1.00
1055;DHT22;516;51.482;7.120;2024-02-04T12:34:52;20.90;1.00
1055;DHT22;516;51.482;7.120;2024-02-04T12:37:22;20.90;1.00
1055;DHT22;516;51.482;7.120;2024-02-04T12:39:48;20.90;1.00
1055;DHT22;516;51.482;7.120;2024-02-04T12:42:17;20.90;1.00
1055;DHT22;516;51.482;7.120;2024-02-04T12:44:47;20.90;1.00
1055;DHT22;516;51.482;7.120;2024-02-04T12:47:14;20.90;1.00
1055;DHT22;516;51.482;7.120;2024-02-04T12:49:41;20.90;1.00
1055;DHT22;516;51.482;7.120;2024-02-04T12:52:07;20.90;1.00
1055;DHT22;516;51.482;7.120;2024-02-04T12:54:45;20.90;1.00
1055;DHT22;516;51.482;7.120;2024-02-04T12:57:22;20.90;1.00
1055;DHT22;516;51.482;7.120;2024-02-04T12:59:49;20.90;1.00
1055;DHT22;516;51.482;7.120;2024-02-04T13:02:14;20.90;1.00
1055;DHT22;516;51.482;7.120;2024-02-04T13:04:41;20.90;1.00
1055;DHT22;516;51.482;7.120;2024-02-04T13:07:12;20.90;1.00
1055;DHT22;516;51.482;7.120;2024-02-04T13:09:40;20.80;1.00
1055;DHT22;516;51.482;7.120;2024-02-04T13:12:07;20.90;1.00
1055;DHT22;516;51.482;7.120;2024-02-04T13:14:34;20.90;1.00
1055;DHT22;516;51.482;7.120;2024-02-04T13:17:00;20.90;1.00
1055;DHT22;516;51.482;7.120;2024-02-04T13:19:32;20.90;1.00
1055;DHT22;516;51.482;7.120;2024-02-04T13:21:58;20.80;1.00
1055;DHT22;516;51.482;7.120;2024-02-04T13:24:24;20.90;1.00
1055;DHT22;516;51.482;7.120;2024-02-04T13:26:50;20.80;1.00
1055;DHT22;516;51.482;7.120;2024-02-04T13:29:15;20.80;1.00
1055;DHT22;516;51.482;7.120;2024-02-04T13:31:41;20.80;1.00
1055;DHT22;516;51.482;7.120;2024-02-04T13:34:07;20.80;1.00
1055;DHT22;516;51.482;7.120;2024-02-04T13:36:33;20.80;1.00
1055;DHT22;516;51.482;7.120;2024-02-04T13:38:58;20.80;1.00
1055;DHT22;516;51.482;7.120;2024-02-04T13:41:24;20.80;1.00
1055;DHT22;516;51.482;7.120;2024-02-04T13:43:50;20.80;1.00
1055;DHT22;516;51.482;7.120;2024-02-04T13:46:16;20.80;1.00
1055;DHT22;516;51.482;7.120;2024-02-04T13:48:41;20.80;1.00
1055;DHT22;516;51.482;7.120;2024-02-04T13:51:07;20.80;1.00
1055;DHT22;516;51.482;7.120;2024-02-04T13:53:33;20.80;1.00
1055;DHT22;516;51.482;7.120;2024-02-04T13:56:01;20.80;1.00
1055;DHT22;516;51.482;7.120;2024-02-04T13:58:27;20.80;1.00
1055;DHT22;516;51.482;7.120;2024-02-04T14:00:52;20.80;1.00
1055;DHT22;516;51.482;7.120;2024-02-04T14:03:18;20.80;1.00
1055;DHT22;516;51.482;7.120;2024-02-04T14:05:44;20.80;1.00
1055;DHT22;516;51.482;7.120;2024-02-04T14:08:10;20.80;1.00
1055;DHT22;516;51.482;7.120;2024-02-04T14:10:36;20.80;1.00
1055;DHT22;516;51.482;7.120;2024-02-04T14:13:03;20.80;1.00
1055;DHT22;516;51.482;7.120;2024-02-04T14:15:30;20.80;1.00
1055;DHT22;516;51.482;7.120;2024-02-04T14:17:57;20.80;1.00
1055;DHT22;516;51.482;7.120;2024-02-04T14:20:23;20.80;1.00
1055;DHT22;516;51.482;7.120;2024-02-04T14:22:49;20.80;1.00
1055;DHT22;516;51.482;7.120;2024-02-04T14:25:16;20.80;1.00
1055;DHT22;516;51.482;7.120;2024-02-04T14:27:42;20.80;1.00
1055;DHT22;516;51.482;7.120;2024-02-04T14:30:08;20.80;1.00
1055;DHT22;516;51.482;7.120;2024-02-04T14:32:34;20.80;1.00
1055;DHT22;516;51.482;7.120;2024-02-04T14:35:00;20.80;1.00
1055;DHT22;516;51.482;7.120;2024-02-04T14:37:26;20.80;1.00
1055;DHT22;516;51.482;7.120;2024-02-04T14:39:51;20.80;1.00
1055;DHT22;516;51.482;7.120;2024-02-04T14:42:18;20.80;1.00
1055;DHT22;516;51.482;7.120;2024-02-04T14:44:44;20.80;1.00
1055;DHT22;516;51.482;7.120;2024-02-04T14:47:10;20.80;1.00
1055;DHT22;516;51.482;7.120;2024-02-04T14:49:38;20.80;1.00
1055;DHT22;516;51.482;7.120;2024-02-04T14:52:04;20.70;1.00
1055;DHT22;516;51.482;7.120;2024-02-04T14:54:30;20.70;1.00
1055;DHT22;516;51.482;7.120;2024-02-04T14:56:56;20.80;1.00
1055;DHT22;516;51.482;7.120;2024-02-04T14:59:22;20.80;1.00
1055;DHT22;516;51.482;7.120;2024-02-04T15:01:48;20.80;1.00
1055;DHT22;516;51.482;7.120;2024-02-04T15:04:14;20.70;1.00
1055;DHT22;516;51.482;7.120;2024-02-04T15:06:41;20.70;1.00
1055;DHT22;516;51.482;7.120;2024-02-04T15:09:07;20.70;1.00
1055;DHT22;516;51.482;7.120;2024-02-04T15:11:33;20.70;1.00
1055;DHT22;516;51.482;7.120;2024-02-04T15:14:00;20.70;1.00
1055;DHT22;516;51.482;7.120;2024-02-04T15:16:26;20.70;1.00
1055;DHT22;516;51.482;7.120;2024-02-04T15:18:52;20.70;1.00
1055;DHT22;516;51.482;7.120;2024-02-04T15:21:18;20.80;1.00
1055;DHT22;516;51.482;7.120;2024-02-04T15:23:44;20.80;1.00
1055;DHT22;516;51.482;7.120;2024-02-04T15:26:11;20.70;1.00
1055;DHT22;516;51.482;7.120;2024-02-04T15:28:38;20.70;1.00
1055;DHT22;516;51.482;7.120;2024-02-04T15:31:05;20.70;1.00
1055;DHT22;516;51.482;7.120;2024-02-04T15:33:31;20.70;1.00
1055;DHT22;516;51.482;7.120;2024-02-04T15:35:56;20.70;1.00
1055;DHT22;516;51.482;7.120;2024-02-04T15:38:22;20.70;1.00
1055;DHT22;516;51.482;7.120;2024-02-04T15:40:48;20.70;1.00
1055;DHT22;516;51.482;7.120;2024-02-04T15:43:14;20.70;1.00
1055;DHT22;516;51.482;7.120;2024-02-04T15:45:40;20.70;1.00
1055;DHT22;516;51.482;7.120;2024-02-04T15:48:06;20.70;1.00
1055;DHT22;516;51.482;7.120;2024-02-04T15:50:34;20.70;1.00
1055;DHT22;516;51.482;7.120;2024-02-04T15:53:00;20.70;1.00
1055;DHT22;516;51.482;7.120;2024-02-04T15:55:26;20.70;1.00
1055;DHT22;516;51.482;7.120;2024-02-04T15:57:52;20.70;1.00
1055;DHT22;516;51.482;7.120;2024-02-04T16:00:21;20.70;1.00
1055;DHT22;516;51.482;7.120;2024-02-04T16:02:54;20.70;1.00
1055;DHT22;516;51.482;7.120;2024-02-04T16:05:21;20.70;1.00
1055;DHT22;516;51.482;7.120;2024-02-04T16:07:48;20.70;1.00
1055;DHT22;516;51.482;7.120;2024-02-04T16:10:16;20.60;1.00
1055;DHT22;516;51.482;7.120;2024-02-04T16:12:55;20.60;1.00
1055;DHT22;516;51.482;7.120;2024-02-04T16:15:24;20.70;1.00
1055;DHT22;516;51.482;7.120;2024-02-04T16:17:50;20.70;1.00
1055;DHT22;516;51.482;7.120;2024-02-04T16:20:17;20.60;1.00
1055;DHT22;516;51.482;7.120;2024-02-04T16:22:44;20.60;1.00
1055;DHT22;516;51.482;7.120;2024-02-04T16:25:09;20.70;1.00
1055;DHT22;516;51.482;7.120;2024-02-04T16:27:36;20.60;1.00
1055;DHT22;516;51.482;7.120;2024-02-04T16:30:02;20.70;1.00
1055;DHT22;516;51.482;7.120;2024-02-04T16:32:29;20.70;1.00
1055;DHT22;516;51.482;7.120;2024-02-04T16:34:55;20.60;1.00
1055;DHT22;516;51.482;7.120;2024-02-04T16:37:22;20.60;1.00
1055;DHT22;516;51.482;7.120;2024-02-04T16:39:48;20.60;1.00
1055;DHT22;516;51.482;7.120;2024-02-04T16:42:14;20.60;1.00